Time;durP1;ratioP1;P1;durP2;ratioP2;P2;SDS_P1;SDS_P2;PMS_P1;PMS_P2;Temp;Humidity;BMP_temperature;BMP_pressure;BME280_temperature;BME280_humidity;BME280_pressure;Samples;Min_cycle;Max_cycle;Signal;HPM_P1;HPM_P2
2023/04/22 00:00:01;;;;;;;8.52;6.95;;;;;;;;;;5020319;28;20047;-60
2023/04/22 00:02:28;;;;;;;6.97;6.13;;;;;;;;;;5047287;28;20130;-60
2023/04/22 00:04:56;;;;;;;7.97;6.75;;;;;;;;;;5047326;28;20041;-60
2023/04/22 00:07:22;;;;;;;9.23;6.43;;;;;;;;;;5048481;28;20052;-59
2023/04/22 00:09:48;;;;;;;9.52;6.68;;;;;;;;;;5027985;28;20049;-60
2023/04/22 00:12:15;;;;;;;10.32;7.00;;;;;;;;;;5044147;28;20048;-59
2023/04/22 00:14:41;;;;;;;8.57;6.50;;;;;;;;;;5047954;28;20499;-60
2023/04/22 00:17:07;;;;;;;9.45;6.60;;;;;;;;;;5048387;28;20120;-60
2023/04/22 00:19:33;;;;;;;8.88;7.05;;;;;;;;;;5046398;28;20167;-60
2023/04/22 00:21:59;;;;;;;8.00;6.28;;;;;;;;;;5047647;28;20094;-60
2023/04/22 00:24:25;;;;;;;8.75;7.63;;;;;;;;;;5045997;28;20056;-60
2023/04/22 00:26:52;;;;;;;9.13;7.47;;;;;;;;;;5045329;28;20111;-59
2023/04/22 00:29:18;;;;;;;12.35;7.85;;;;;;;;;;5044410;28;20072;-60
2023/04/22 00:31:44;;;;;;;9.77;7.47;;;;;;;;;;5036384;28;20542;-59
2023/04/22 00:34:10;;;;;;;9.35;7.57;;;;;;;;;;5044662;28;20052;-59
2023/04/22 00:36:36;;;;;;;11.95;7.10;;;;;;;;;;5048341;28;20052;-60
2023/04/22 00:39:03;;;;;;;9.73;7.25;;;;;;;;;;5043025;28;20039;-60
2023/04/22 00:41:29;;;;;;;9.35;7.00;;;;;;;;;;5045189;28;20113;-59
2023/04/22 00:43:56;;;;;;;9.07;8.13;;;;;;;;;;5047115;28;20040;-59
2023/04/22 00:46:23;;;;;;;8.75;7.85;;;;;;;;;;5038603;28;20186;-59
2023/04/22 00:48:49;;;;;;;9.98;7.60;;;;;;;;;;5040221;28;20037;-59
2023/04/22 00:51:16;;;;;;;9.50;7.32;;;;;;;;;;5039400;28;20073;-59
2023/04/22 00:53:42;;;;;;;9.70;7.70;;;;;;;;;;5031657;28;20676;-60
2023/04/22 00:56:08;;;;;;;8.60;7.15;;;;;;;;;;5036132;28;20092;-59
2023/04/22 00:58:34;;;;;;;9.70;7.38;;;;;;;;;;5044126;28;20128;-59
2023/04/22 01:01:00;;;;;;;11.18;7.93;;;;;;;;;;5037087;28;20156;-59
2023/04/22 01:03:29;;;;;;;9.38;7.25;;;;;;;;;;5045335;28;20049;-59
2023/04/22 01:05:55;;;;;;;9.60;7.13;;;;;;;;;;5039145;28;20045;-59
2023/04/22 01:08:21;;;;;;;9.32;7.55;;;;;;;;;;5043457;28;20055;-59
2023/04/22 01:10:47;;;;;;;13.95;8.13;;;;;;;;;;5046013;28;20037;-60
2023/04/22 01:13:14;;;;;;;9.40;7.78;;;;;;;;;;5046838;28;20463;-59
2023/04/22 01:15:40;;;;;;;8.82;7.20;;;;;;;;;;5046884;28;20036;-60
2023/04/22 01:18:06;;;;;;;8.63;6.70;;;;;;;;;;5012703;28;20049;-59
2023/04/22 01:20:32;;;;;;;10.82;7.40;;;;;;;;;;5044435;28;20532;-59
2023/04/22 01:23:02;;;;;;;11.18;8.57;;;;;;;;;;5045067;28;20110;-59
2023/04/22 01:25:29;;;;;;;8.95;7.88;;;;;;;;;;5029210;28;20052;-59
2023/04/22 01:27:55;;;;;;;9.65;8.07;;;;;;;;;;5045861;28;20045;-59
2023/04/22 01:30:21;;;;;;;9.95;7.90;;;;;;;;;;5045421;28;20071;-59
2023/04/22 01:32:48;;;;;;;12.25;8.50;;;;;;;;;;5043356;28;20033;-59
2023/04/22 01:35:14;;;;;;;8.70;7.40;;;;;;;;;;5047141;28;20041;-59
2023/04/22 01:37:40;;;;;;;11.25;7.95;;;;;;;;;;5043710;28;20265;-59
2023/04/22 01:40:08;;;;;;;9.05;7.88;;;;;;;;;;5043541;28;20038;-59
2023/04/22 01:42:34;;;;;;;9.38;7.75;;;;;;;;;;5035683;28;20500;-60
2023/04/22 01:45:01;;;;;;;12.35;8.68;;;;;;;;;;5026187;28;20470;-60
2023/04/22 01:47:27;;;;;;;10.52;8.18;;;;;;;;;;5046899;28;20053;-59
2023/04/22 01:49:53;;;;;;;11.15;7.50;;;;;;;;;;5045085;28;20640;-59
2023/04/22 01:52:19;;;;;;;13.45;9.05;;;;;;;;;;5041891;28;20051;-59
2023/04/22 01:54:45;;;;;;;10.45;8.13;;;;;;;;;;5039776;28;20038;-59
2023/04/22 01:57:15;;;;;;;12.30;8.82;;;;;;;;;;5045424;28;20072;-59
2023/04/22 01:59:41;;;;;;;9.52;8.32;;;;;;;;;;5027549;28;20049;-59
2023/04/22 02:02:07;;;;;;;9.80;7.82;;;;;;;;;;5025203;28;20417;-59
2023/04/22 02:04:34;;;;;;;8.50;7.60;;;;;;;;;;5041256;28;20426;-59
2023/04/22 02:07:00;;;;;;;8.48;7.25;;;;;;;;;;5046990;28;20135;-59
2023/04/22 02:09:26;;;;;;;8.95;7.25;;;;;;;;;;5016805;28;20120;-58
2023/04/22 02:11:52;;;;;;;10.98;8.45;;;;;;;;;;5043127;28;20459;-59
2023/04/22 02:14:19;;;;;;;11.85;7.80;;;;;;;;;;5027604;28;20037;-59
2023/04/22 02:16:45;;;;;;;11.38;8.02;;;;;;;;;;5045697;28;20116;-59
2023/04/22 02:19:11;;;;;;;8.43;7.20;;;15.20;99.90;;;;;;5024383;28;20052;-59
2023/04/22 02:21:37;;;;;;;10.27;7.10;;;;;;;;;;5045618;28;20045;-59
2023/04/22 02:24:03;;;;;;;9.02;7.05;;;10.80;99.90;;;;;;5042888;28;20041;-59
2023/04/22 02:26:29;;;;;;;8.18;6.85;;;10.70;99.90;;;;;;5022506;28;20044;-59
2023/04/22 02:28:55;;;;;;;7.70;6.50;;;;;;;;;;5019581;28;20045;-60
2023/04/22 02:31:21;;;;;;;10.00;7.03;;;;;;;;;;5045185;28;20043;-60
2023/04/22 02:33:47;;;;;;;8.35;6.45;;;;;;;;;;5029231;28;20033;-60
2023/04/22 02:36:14;;;;;;;9.35;6.20;;;;;;;;;;5043884;28;20039;-59
2023/04/22 02:38:40;;;;;;;9.40;7.25;;;;;;;;;;5048125;28;20063;-59
2023/04/22 02:41:06;;;;;;;8.52;6.80;;;;;;;;;;5048957;28;20447;-60
2023/04/22 02:43:32;;;;;;;9.68;7.03;;;;;;;;;;5048749;28;20065;-59
2023/04/22 02:45:58;;;;;;;9.90;6.55;;;;;;;;;;5049684;28;20033;-59
2023/04/22 02:48:24;;;;;;;8.27;6.15;;;;;;;;;;5048839;28;20818;-59
2023/04/22 02:50:50;;;;;;;8.98;7.28;;;;;;;;;;5047536;28;20041;-59
2023/04/22 02:53:17;;;;;;;8.85;7.53;;;;;;;;;;5046930;28;20044;-60
2023/04/22 02:55:43;;;;;;;8.65;6.38;;;;;;;;;;5049175;28;20095;-59
2023/04/22 02:58:09;;;;;;;9.63;6.70;;;10.70;99.90;;;;;;5048314;28;20041;-59
2023/04/22 03:00:35;;;;;;;9.30;7.22;;;;;;;;;;5048818;28;20099;-59
2023/04/22 03:03:01;;;;;;;9.25;7.25;;;;;;;;;;5045696;28;20068;-59
2023/04/22 03:05:27;;;;;;;8.15;6.05;;;;;;;;;;5049078;28;20037;-59
2023/04/22 03:07:54;;;;;;;8.25;6.32;;;;;;;;;;5047317;28;20110;-59
2023/04/22 03:10:20;;;;;;;9.20;7.50;;;;;;;;;;5049271;28;20413;-59
2023/04/22 03:12:47;;;;;;;9.82;7.38;;;;;;;;;;5048158;28;20451;-59
2023/04/22 03:15:13;;;;;;;6.63;6.00;;;;;;;;;;5049403;28;20041;-60
2023/04/22 03:17:39;;;;;;;8.85;7.43;;;;;;;;;;5049681;28;20049;-59
2023/04/22 03:20:05;;;;;;;8.40;6.22;;;;;;;;;;5046883;28;20037;-59
2023/04/22 03:22:31;;;;;;;7.80;6.50;;;;;;;;;;5048225;28;20056;-59
2023/04/22 03:24:58;;;;;;;8.20;6.32;;;;;;;;;;5047287;28;20041;-59
2023/04/22 03:27:24;;;;;;;8.77;7.10;;;;;;;;;;5030959;28;20409;-59
2023/04/22 03:29:50;;;;;;;9.82;6.57;;;;;;;;;;5048092;28;20463;-59
2023/04/22 03:32:16;;;;;;;7.82;6.97;;;;;;;;;;5047559;28;20517;-58
2023/04/22 03:34:42;;;;;;;8.85;6.80;;;;;;;;;;5044149;28;20087;-59
2023/04/22 03:37:09;;;;;;;8.52;7.05;;;;;;;;;;5029242;28;20109;-59
2023/04/22 03:39:35;;;;;;;10.13;7.90;;;;;;;;;;5042008;28;20033;-59
2023/04/22 03:42:01;;;;;;;10.07;8.85;;;;;;;;;;5040675;28;20037;-58
2023/04/22 03:44:27;;;;;;;8.65;7.30;;;;;;;;;;5045842;28;20125;-58
2023/04/22 03:46:53;;;;;;;9.82;7.40;;;;;;;;;;5012337;28;20048;-59
2023/04/22 03:49:19;;;;;;;10.18;9.02;;;;;;;;;;5036108;28;20087;-59
2023/04/22 03:51:45;;;;;;;13.27;8.93;;;;;;;;;;5045346;28;20110;-59
2023/04/22 03:54:11;;;;;;;13.70;8.70;;;;;;;;;;5044881;28;20533;-59
2023/04/22 03:56:37;;;;;;;12.23;9.05;;;;;;;;;;5042135;28;20045;-59
2023/04/22 03:59:04;;;;;;;11.73;8.15;;;;;;;;;;5037318;28;20050;-59
2023/04/22 04:01:30;;;;;;;11.27;8.38;;;;;;;;;;5035223;28;20180;-61
2023/04/22 04:03:56;;;;;;;9.45;8.07;;;;;;;;;;5025965;28;20249;-60
2023/04/22 04:06:23;;;;;;;10.18;8.70;;;;;;;;;;5047217;28;20035;-60
2023/04/22 04:08:49;;;;;;;12.23;9.63;;;;;;;;;;5045589;28;20045;-58
2023/04/22 04:11:15;;;;;;;11.48;8.63;;;;;;;;;;5043233;28;20131;-59
2023/04/22 04:13:41;;;;;;;10.23;9.18;;;;;;;;;;5043323;28;20491;-59
2023/04/22 04:16:08;;;;;;;11.30;8.05;;;;;;;;;;5029124;28;20037;-59
2023/04/22 04:18:35;;;;;;;11.35;8.90;;;;;;;;;;5047034;28;20037;-59
2023/04/22 04:21:01;;;;;;;10.38;7.90;;;;;;;;;;5047904;28;20052;-59
2023/04/22 04:23:27;;;;;;;10.07;8.27;;;;;;;;;;5043521;28;20043;-59
2023/04/22 04:25:54;;;;;;;9.85;8.55;;;;;;;;;;5045465;28;20506;-59
2023/04/22 04:28:21;;;;;;;12.70;9.25;;;;;;;;;;5029084;28;20128;-60
2023/04/22 04:30:47;;;;;;;11.95;10.15;;;;;;;;;;5039460;28;20520;-60
2023/04/22 04:33:16;;;;;;;10.52;9.27;;;;;;;;;;5044707;28;20367;-60
2023/04/22 04:35:42;;;;;;;12.85;10.30;;;;;;;;;;5041070;28;20086;-60
2023/04/22 04:38:08;;;;;;;11.20;9.32;;;;;;;;;;5043879;28;20053;-59
2023/04/22 04:40:35;;;;;;;13.23;10.35;;;;;;;;;;5043684;28;20254;-60
2023/04/22 04:43:03;;;;;;;11.70;10.15;;;;;;;;;;5037067;28;20652;-60
2023/04/22 04:45:29;;;;;;;11.57;8.80;;;;;;;;;;5032469;28;20040;-60
2023/04/22 04:47:56;;;;;;;12.20;9.80;;;;;;;;;;5044286;28;20479;-60
2023/04/22 04:50:22;;;;;;;11.23;9.10;;;;;;;;;;5040211;28;20449;-60
2023/04/22 04:52:48;;;;;;;11.82;9.38;;;;;;;;;;5037197;28;20037;-60
2023/04/22 04:55:15;;;;;;;11.20;9.20;;;;;;;;;;5044891;28;20044;-59
2023/04/22 04:57:41;;;;;;;13.23;10.23;;;;;;;;;;5045261;28;20044;-60
2023/04/22 05:00:07;;;;;;;12.30;10.35;;;;;;;;;;5042483;28;20041;-60
2023/04/22 05:02:33;;;;;;;14.75;10.05;;;;;;;;;;5036753;28;20061;-60
2023/04/22 05:04:59;;;;;;;11.18;8.40;;;;;;;;;;5036132;28;20058;-60
2023/04/22 05:07:26;;;;;;;9.73;8.32;;;;;;;;;;5040900;28;20037;-60
2023/04/22 05:09:52;;;;;;;9.85;7.78;;;;;;;;;;5035143;28;20041;-62
2023/04/22 05:12:18;;;;;;;9.75;8.10;;;;;;;;;;5018869;28;20495;-59
2023/04/22 05:14:45;;;;;;;21.85;6.28;;;;;;;;;;5044665;28;20047;-59
2023/04/22 05:17:11;;;;;;;22.80;5.57;;;;;;;;;;5030688;28;20037;-59
2023/04/22 05:19:38;;;;;;;13.35;5.22;;;;;;;;;;5046098;28;20155;-59
2023/04/22 05:22:04;;;;;;;13.13;5.10;;;;;;;;;;5043988;28;20483;-59
2023/04/22 05:24:30;;;;;;;31.60;6.82;;;;;;;;;;5041865;28;20067;-59
2023/04/22 05:26:56;;;;;;;50.38;7.13;;;;;;;;;;5047560;28;20029;-59
2023/04/22 05:29:22;;;;;;;18.13;5.00;;;;;;;;;;5046320;28;20468;-59
2023/04/22 05:31:48;;;;;;;8.35;5.18;;;;;;;;;;5044778;28;20029;-58
2023/04/22 05:34:14;;;;;;;39.08;7.25;;;;;;;;;;5026059;28;20047;-59
2023/04/22 05:36:40;;;;;;;10.73;5.13;;;;;;;;;;5045840;28;20047;-59
2023/04/22 05:39:07;;;;;;;24.55;6.10;;;;;;;;;;5040501;28;20103;-59
2023/04/22 05:41:33;;;;;;;8.40;4.00;;;;;;;;;;5045662;28;20461;-59
2023/04/22 05:43:59;;;;;;;15.38;5.80;;;;;;;;;;5028409;28;20047;-59
2023/04/22 05:46:25;;;;;;;8.65;3.78;;;;;;;;;;5028507;28;20047;-59
2023/04/22 05:48:53;;;;;;;25.63;5.82;;;;;;;;;;5048049;28;20036;-59
2023/04/22 05:51:19;;;;;;;9.65;4.28;;;;;;;;;;5037586;28;20091;-59
2023/04/22 05:53:45;;;;;;;14.48;4.68;;;;;;;;;;5034404;28;20037;-59
2023/04/22 05:56:11;;;;;;;45.60;7.57;;;;;;;;;;5037784;28;20043;-59
2023/04/22 05:58:38;;;;;;;27.52;5.95;;;;;;;;;;5040271;28;20175;-60
2023/04/22 06:01:04;;;;;;;29.42;6.15;;;;;;;;;;5038960;28;20064;-60
2023/04/22 06:03:30;;;;;;;24.80;5.30;;;;;;;;;;5031798;28;20507;-60
2023/04/22 06:05:56;;;;;;;10.00;5.05;;;;;;;;;;5052555;28;20052;-60
2023/04/22 06:08:22;;;;;;;10.15;4.70;;;;;;;;;;5046373;28;20398;-60
2023/04/22 06:10:49;;;;;;;18.77;5.93;;;;;;;;;;5039492;28;20029;-59
2023/04/22 06:13:16;;;;;;;36.20;7.35;;;;;;;;;;5036153;28;20072;-59
2023/04/22 06:15:42;;;;;;;13.95;5.97;;;;;;;;;;5050394;28;20041;-59
2023/04/22 06:18:08;;;;;;;7.78;5.75;;;;;;;;;;5031216;28;20047;-59
2023/04/22 06:20:34;;;;;;;35.15;7.20;;;;;;;;;;5050911;28;20045;-59
2023/04/22 06:23:01;;;;;;;7.63;5.15;;;;;;;;;;5041100;28;20052;-59
2023/04/22 06:25:27;;;;;;;7.68;5.53;;;;;;;;;;5049190;28;20041;-59
2023/04/22 06:27:53;;;;;;;9.35;6.38;;;;;;;;;;5026782;28;20095;-59
2023/04/22 06:30:19;;;;;;;8.25;6.82;;;;;;;;;;5051054;28;20044;-59
2023/04/22 06:32:46;;;;;;;8.20;7.40;;;;;;;;;;5043145;28;20073;-60
2023/04/22 06:35:12;;;;;;;10.15;7.50;;;;;;;;;;5041774;28;20505;-59
2023/04/22 06:37:38;;;;;;;9.80;8.35;;;;;;;;;;5048692;28;20077;-59
2023/04/22 06:40:04;;;;;;;10.23;8.00;;;;;;;;;;5027765;28;20432;-59
2023/04/22 06:42:30;;;;;;;10.05;8.48;;;;;;;;;;5050301;28;20503;-59
2023/04/22 06:44:56;;;;;;;13.32;8.52;;;;;;;;;;5050580;28;20072;-59
2023/04/22 06:47:23;;;;;;;10.85;8.35;;;;;;;;;;5046132;28;20158;-59
2023/04/22 06:49:49;;;;;;;11.05;8.65;;;;;;;;;;5046980;28;20037;-59
2023/04/22 06:52:15;;;;;;;11.48;8.93;;;;;;;;;;5027504;28;20526;-59
2023/04/22 06:54:41;;;;;;;12.45;9.57;;;;;;;;;;5045529;28;20037;-60
2023/04/22 06:57:07;;;;;;;10.73;8.52;;;;;;;;;;5018074;28;20068;-61
2023/04/22 06:59:34;;;;;;;11.55;8.43;;;;;;;;;;5018393;28;20601;-60
2023/04/22 07:02:00;;;;;;;12.70;11.18;;;;;;;;;;5042677;28;20052;-59
2023/04/22 07:04:28;;;;;;;11.40;9.73;;;;;;;;;;5047253;28;20053;-60
2023/04/22 07:06:54;;;;;;;10.10;8.60;;;;;;;;;;5042983;28;20037;-59
2023/04/22 07:09:20;;;;;;;13.05;9.38;;;;;;;;;;5022368;28;20107;-59
2023/04/22 07:11:46;;;;;;;11.88;9.52;;;;;;;;;;5024733;28;20041;-60
2023/04/22 07:14:12;;;;;;;13.30;9.30;;;;;;;;;;5023153;28;20040;-59
2023/04/22 07:16:39;;;;;;;13.13;10.73;;;;;;;;;;5047865;28;20063;-59
2023/04/22 07:19:05;;;;;;;10.95;9.07;;;;;;;;;;5045348;28;20468;-59
2023/04/22 07:21:31;;;;;;;11.45;9.73;;;;;;;;;;5040592;28;20095;-59
2023/04/22 07:23:58;;;;;;;12.15;9.98;;;;;;;;;;5049430;28;20165;-59
2023/04/22 07:26:24;;;;;;;12.15;10.32;;;;;;;;;;5017891;28;20513;-59
2023/04/22 07:28:50;;;;;;;16.95;10.85;;;;;;;;;;5049759;28;20052;-59
2023/04/22 07:31:17;;;;;;;15.57;10.82;;;;;;;;;;5048375;28;20445;-59
2023/04/22 07:33:43;;;;;;;13.77;10.68;;;;;;;;;;5047821;28;20045;-59
2023/04/22 07:36:09;;;;;;;11.88;9.38;;;;;;;;;;5031714;28;20037;-59
2023/04/22 07:38:35;;;;;;;11.63;9.18;;;;;;;;;;5019530;28;20095;-60
2023/04/22 07:41:01;;;;;;;11.23;9.52;;;;;;;;;;5044760;28;20041;-59
2023/04/22 07:43:27;;;;;;;16.30;11.18;;;;;;;;;;5044866;28;20033;-60
2023/04/22 07:45:54;;;;;;;16.23;12.70;;;;;;;;;;5038015;28;20041;-59
2023/04/22 07:48:20;;;;;;;14.32;11.10;;;;;;;;;;5047177;28;20056;-60
2023/04/22 07:50:46;;;;;;;16.27;11.48;;;;;;;;;;5046337;28;20158;-59
2023/04/22 07:53:14;;;;;;;13.63;10.20;;;;;;;;;;5043954;28;20030;-59
2023/04/22 07:55:40;;;;;;;12.65;11.35;;;;;;;;;;5037189;28;20501;-60
2023/04/22 07:58:07;;;;;;;15.57;12.60;;;;;;;;;;5039206;28;20037;-59
2023/04/22 08:00:34;;;;;;;13.23;11.70;;;;;;;;;;5031533;28;20069;-59
2023/04/22 08:03:00;;;;;;;14.98;11.75;;;;;;;;;;5037596;28;20260;-60
2023/04/22 08:05:27;;;;;;;16.38;11.63;;;;;;;;;;5050836;28;20047;-59
2023/04/22 08:07:53;;;;;;;15.25;12.40;;;;;;;;;;5045183;28;20044;-59
2023/04/22 08:10:19;;;;;;;14.55;11.55;;;;;;;;;;5042115;28;20052;-59
2023/04/22 08:12:45;;;;;;;16.35;11.05;;;;;;;;;;5034051;28;20120;-60
2023/04/22 08:15:12;;;;;;;15.25;12.05;;;;;;;;;;5040361;28;20522;-60
2023/04/22 08:17:38;;;;;;;14.90;12.38;;;;;;;;;;5027823;28;20314;-60
2023/04/22 08:20:05;;;;;;;16.80;12.43;;;;;;;;;;5046186;28;20048;-59
2023/04/22 08:22:32;;;;;;;15.10;11.00;;;;;;;;;;5031981;28;20075;-60
2023/04/22 08:24:58;;;;;;;13.55;12.10;;;;;;;;;;5048489;28;20041;-59
2023/04/22 08:27:25;;;;;;;17.52;11.98;;;;;;;;;;5047511;28;20442;-60
2023/04/22 08:29:51;;;;;;;18.00;11.63;;;;;;;;;;5047508;28;20382;-60
2023/04/22 08:32:18;;;;;;;18.30;13.60;;;10.30;99.90;;;;;;5048140;28;20033;-60
2023/04/22 08:34:45;;;;;;;17.77;13.35;;;;;;;;;;5030016;28;20040;-60
2023/04/22 08:37:11;;;;;;;16.02;12.25;;;;;;;;;;5019686;28;20098;-60
2023/04/22 08:39:37;;;;;;;17.40;12.98;;;;;;;;;;5040688;28;20045;-59
2023/04/22 08:42:04;;;;;;;16.35;13.45;;;;;;;;;;5047659;28;20043;-60
2023/04/22 08:44:31;;;;;;;16.27;13.23;;;;;;;;;;5048710;28;20051;-60
2023/04/22 08:46:58;;;;;;;18.48;13.30;;;;;;;;;;5040161;28;20046;-60
2023/04/22 08:49:24;;;;;;;17.05;12.88;;;;;;;;;;5044578;28;20365;-59
2023/04/22 08:51:51;;;;;;;16.10;13.43;;;;;;;;;;5044651;28;20469;-59
2023/04/22 08:54:18;;;;;;;18.67;14.13;;;;;;;;;;5045621;28;20546;-59
2023/04/22 08:56:44;;;;;;;17.15;13.90;;;;;;;;;;5044912;28;20537;-59
2023/04/22 08:59:12;;;;;;;17.67;13.60;;;;;;;;;;5046096;28;20045;-60
2023/04/22 09:01:39;;;;;;;19.90;13.90;;;;;;;;;;5030462;28;20044;-59
2023/04/22 09:04:06;;;;;;;19.80;14.57;;;;;;;;;;5025108;28;20100;-60
2023/04/22 09:06:32;;;;;;;19.73;13.45;;;;;;;;;;5029070;28;20037;-60
2023/04/22 09:09:00;;;;;;;19.15;14.15;;;;;;;;;;5045169;28;20128;-59
2023/04/22 09:11:27;;;;;;;18.95;13.82;;;12.00;99.90;;;;;;5047243;28;20388;-59
2023/04/22 09:13:53;;;;;;;14.57;13.02;;;13.30;99.90;;;;;;5045876;28;20106;-60
2023/04/22 09:16:19;;;;;;;16.02;13.18;;;13.30;99.90;;;;;;5018755;28;20037;-59
2023/04/22 09:18:45;;;;;;;16.38;12.95;;;13.40;99.90;;;;;;5034501;28;20045;-59
2023/04/22 09:21:11;;;;;;;15.98;12.52;;;13.50;99.90;;;;;;5040358;28;20479;-59
2023/04/22 09:23:50;;;;;;;18.48;12.30;;;;;;;;;;5035345;28;20128;-59
2023/04/22 09:26:20;;;;;;;16.23;12.63;;;;;;;;;;5034315;28;20120;-59
2023/04/22 09:28:54;;;;;;;16.15;12.75;;;;;;;;;;5029308;28;20075;-59
2023/04/22 09:31:20;;;;;;;14.77;11.80;;;;;;;;;;5039331;28;20402;-60
2023/04/22 09:33:51;;;;;;;14.65;11.50;;;13.60;99.90;;;;;;5039552;28;20503;-59
2023/04/22 09:36:32;;;;;;;18.90;13.13;;;13.90;99.90;;;;;;5041769;28;20171;-60
2023/04/22 09:39:03;;;;;;;19.00;12.73;;;13.90;99.90;;;;;;5035896;28;20033;-60
2023/04/22 09:41:31;;;;;;;19.08;12.68;;;14.00;99.90;;;;;;5047053;28;20048;-60
2023/04/22 09:43:59;;;;;;;17.55;12.45;;;14.00;99.90;;;;;;5049945;28;20040;-60
2023/04/22 09:46:26;;;;;;;15.27;12.82;;;14.10;99.90;;;;;;5051554;28;20033;-60
2023/04/22 09:48:55;;;;;;;16.17;11.98;;;14.10;99.90;;;;;;5052520;28;20052;-58
2023/04/22 09:51:21;;;;;;;14.35;11.98;;;14.20;99.90;;;;;;5056702;28;20036;-59
2023/04/22 09:54:10;;;;;;;15.82;12.50;;;14.30;99.90;;;;;;5048974;28;20120;-59
2023/04/22 09:56:43;;;;;;;15.20;12.57;;;;;;;;;;5051653;28;20041;-59
2023/04/22 09:59:09;;;;;;;;;;;;;;;;;;5050970;28;20315;-59
2023/04/22 10:01:40;;;;;;;15.73;11.50;;;;;;;;;;5051887;28;19964;-60
2023/04/22 10:04:10;;;;;;;15.40;12.10;;;;;;;;;;5049489;28;20049;-59
2023/04/22 10:06:36;;;;;;;17.02;12.57;;;;;;;;;;5054149;28;20277;-59
2023/04/22 10:09:03;;;;;;;11.88;9.95;;;;;;;;;;5045529;28;20406;-59
2023/04/22 10:11:31;;;;;;;15.00;12.07;;;14.30;99.90;;;;;;5045128;28;20037;-59
2023/04/22 10:13:59;;;;;;;17.00;12.80;;;14.90;99.90;;;;;;5050600;28;20033;-59
2023/04/22 10:16:26;;;;;;;14.38;11.70;;;15.00;99.90;;;;;;5045256;28;20518;-59
2023/04/22 10:18:53;;;;;;;16.08;12.82;;;;;;;;;;5043294;28;20037;-59
2023/04/22 10:21:20;;;;;;;13.25;11.43;;;;;;;;;;5037989;28;20486;-59
2023/04/22 10:23:47;;;;;;;15.20;12.18;;;;;;;;;;5032068;28;20041;-60
2023/04/22 10:26:33;;;;;;;14.13;11.18;;;;;;;;;;5045055;28;20048;-59
2023/04/22 10:29:00;;;;;;;14.05;11.52;;;;;;;;;;5032665;28;20052;-59
2023/04/22 10:31:25;;;;;;;12.50;10.88;;;15.10;99.90;;;;;;5032050;28;20041;-59
2023/04/22 10:34:09;;;;;;;14.07;10.60;;;15.40;99.90;;;;;;5033031;28;20094;-59
2023/04/22 10:37:05;;;;;;;14.05;11.20;;;15.50;99.90;;;;;;5050060;28;20103;-59
2023/04/22 10:39:31;;;;;;;14.85;11.63;;;15.50;99.90;;;;;;5041260;28;20037;-59
2023/04/22 10:42:11;;;;;;;17.92;13.27;;;15.60;99.90;;;;;;5026708;28;20498;-59
2023/04/22 10:44:59;;;;;;;13.77;10.95;;;15.60;99.90;;;;;;5045404;28;20398;-59
2023/04/22 10:47:43;;;;;;;14.15;10.80;;;15.70;99.90;;;;;;5045823;28;20052;-59
2023/04/22 10:50:28;;;;;;;15.82;12.68;;;15.70;99.90;;;;;;5036524;28;20043;-61
2023/04/22 10:53:01;;;;;;;12.60;11.00;;;15.70;99.90;;;;;;5043512;28;20056;-60
2023/04/22 10:55:51;;;;;;;15.32;12.30;;;15.70;99.90;;;;;;5046979;28;20052;-59
2023/04/22 10:58:21;;;;;;;13.95;11.02;;;15.70;99.90;;;;;;5037411;28;20710;-59
2023/04/22 11:00:52;;;;;;;16.13;12.43;;;15.80;99.90;;;;;;5038623;28;20064;-59
2023/04/22 11:03:19;;;;;;;14.82;12.35;;;;;;;;;;5033211;28;20065;-59
2023/04/22 11:05:45;;;;;;;15.80;11.82;;;;;;;;;;5030305;28;20461;-59
2023/04/22 11:08:15;;;;;;;13.82;11.57;;;15.90;99.90;;;;;;5021811;28;20069;-59
2023/04/22 11:10:43;;;;;;;13.60;10.93;;;;;;;;;;5016588;28;20033;-59
2023/04/22 11:13:11;;;;;;;12.82;11.50;;;;;;;;;;5024278;28;20037;-59
2023/04/22 11:15:38;;;;;;;13.77;10.95;;;;;;;;;;5020685;28;20049;-59
2023/04/22 11:18:07;;;;;;;11.85;10.32;;;;;;;;;;5017143;28;20538;-59
2023/04/22 11:20:34;;;;;;;13.00;10.13;;;;;;;;;;5027944;28;20132;-59
2023/04/22 11:23:00;;;;;;;14.93;10.10;;;;;;;;;;5029833;28;20455;-59
2023/04/22 11:25:26;;;;;;;12.85;10.90;;;;;;;;;;5028777;28;20407;-60
2023/04/22 11:27:55;;;;;;;14.73;10.50;;;;;;;;;;5028689;28;20349;-60
2023/04/22 11:30:22;;;;;;;18.60;10.65;;;;;;;;;;5017926;28;20041;-59
2023/04/22 11:32:49;;;;;;;14.43;10.98;;;;;;;;;;5029391;28;20491;-59
2023/04/22 11:35:18;;;;;;;13.38;10.75;;;;;;;;;;5030076;28;20139;-59
2023/04/22 11:37:45;;;;;;;13.43;10.60;;;;;;;;;;5027085;28;20041;-60
2023/04/22 11:40:12;;;;;;;12.30;10.68;;;;;;;;;;5028173;28;20399;-59
2023/04/22 11:42:39;;;;;;;13.48;10.35;;;;;;;;;;5029075;28;20041;-59
2023/04/22 11:45:05;;;;;;;11.75;9.68;;;;;;;;;;5029445;28;20049;-60
2023/04/22 11:47:33;;;;;;;11.30;9.63;;;;;;;;;;5029936;28;20056;-59
2023/04/22 11:50:05;;;;;;;9.82;8.23;;;;;;;;;;5027927;28;20046;-59
2023/04/22 11:52:47;;;;;;;11.68;9.57;;;;;;;;;;5033061;28;20045;-60
2023/04/22 11:55:24;;;;;;;9.73;8.23;;;;;;;;;;5026485;28;20073;-59
2023/04/22 11:57:54;;;;;;;10.40;8.90;;;;;;;;;;5028533;28;20053;-59
2023/04/22 12:00:21;;;;;;;13.70;9.85;;;;;;;;;;5024285;28;20103;-60
2023/04/22 12:03:00;;;;;;;10.70;9.60;;;;;;;;;;5021833;28;20643;-59
2023/04/22 12:05:34;;;;;;;13.27;9.82;;;;;;;;;;5052190;28;20059;-59
2023/04/22 12:08:04;;;;;;;11.88;9.50;;;;;;;;;;5034277;28;20091;-59
2023/04/22 12:10:30;;;;;;;11.30;10.15;;;;;;;;;;5041507;28;20051;-59
2023/04/22 12:12:56;;;;;;;11.63;9.18;;;;;;;;;;5033494;28;20040;-59
2023/04/22 12:15:22;;;;;;;12.48;9.77;;;;;;;;;;5027027;28;20049;-59
2023/04/22 12:17:52;;;;;;;11.13;9.77;;;;;;;;;;5041564;28;20057;-59
2023/04/22 12:20:18;;;;;;;13.05;9.45;;;;;;;;;;5046088;28;20041;-60
2023/04/22 12:22:44;;;;;;;11.73;9.55;;;;;;;;;;5049410;28;20564;-59
2023/04/22 12:25:11;;;;;;;12.65;10.05;;;;;;;;;;5037298;28;20036;-59
2023/04/22 12:27:37;;;;;;;11.98;9.27;;;;;;;;;;5041154;28;20132;-60
2023/04/22 12:30:03;;;;;;;12.27;9.77;;;;;;;;;;5020545;28;20028;-60
2023/04/22 12:32:30;;;;;;;12.60;9.00;;;;;;;;;;5043759;28;20041;-60
2023/04/22 12:34:56;;;;;;;12.15;8.55;;;;;;;;;;5026913;28;20518;-60
2023/04/22 12:37:22;;;;;;;10.82;8.93;;;;;;;;;;5042682;28;20047;-60
2023/04/22 12:39:48;;;;;;;12.52;9.10;;;;;;;;;;5042472;28;20041;-60
2023/04/22 12:42:14;;;;;;;10.43;8.98;;;;;;;;;;5045891;28;20112;-59
2023/04/22 12:44:42;;;;;;;11.55;8.90;;;;;;;;;;5043891;28;20049;-60
2023/04/22 12:47:08;;;;;;;10.77;8.90;;;;;;;;;;5045423;28;20049;-59
2023/04/22 12:49:35;;;;;;;13.80;10.10;;;;;;;;;;5040253;28;20041;-59
2023/04/22 12:52:01;;;;;;;12.18;9.43;;;;;;;;;;5049775;28;20037;-59
2023/04/22 12:54:27;;;;;;;10.93;8.60;;;;;;;;;;5019713;28;20117;-60
2023/04/22 12:56:53;;;;;;;13.20;9.15;;;;;;;;;;5041691;28;20068;-59
2023/04/22 12:59:20;;;;;;;12.63;9.52;;;;;;;;;;5046508;28;20048;-59
2023/04/22 13:01:46;;;;;;;12.07;9.68;;;;;;;;;;5041517;28;20029;-59
2023/04/22 13:04:12;;;;;;;11.00;9.82;;;;;;;;;;5041562;28;20079;-61
2023/04/22 13:06:38;;;;;;;11.77;9.82;;;;;;;;;;5042558;28;20049;-59
2023/04/22 13:09:05;;;;;;;13.73;9.65;;;;;;;;;;5043420;28;20505;-60
2023/04/22 13:11:31;;;;;;;13.52;10.05;;;;;;;;;;5025390;28;20486;-60
2023/04/22 13:13:57;;;;;;;11.93;9.93;;;;;;;;;;5039105;28;20120;-60
2023/04/22 13:16:24;;;;;;;14.77;10.15;;;;;;;;;;5045853;28;20083;-60
2023/04/22 13:18:50;;;;;;;11.88;8.85;;;;;;;;;;5043196;28;20107;-60
2023/04/22 13:21:16;;;;;;;12.63;9.15;;;;;;;;;;5037893;28;20041;-60
2023/04/22 13:23:42;;;;;;;14.15;10.20;;;;;;;;;;5040367;28;20037;-60
2023/04/22 13:26:09;;;;;;;15.55;10.40;;;;;;;;;;5040160;28;20502;-59
2023/04/22 13:28:35;;;;;;;11.32;9.68;;;;;;;;;;5029161;28;20048;-60
2023/04/22 13:31:01;;;;;;;14.00;9.07;;;;;;;;;;5047496;28;20044;-59
2023/04/22 13:33:27;;;;;;;11.15;9.88;;;;;;;;;;5029468;28;20383;-59
2023/04/22 13:35:53;;;;;;;13.90;9.48;;;;;;;;;;5047236;28;20541;-60
2023/04/22 13:38:20;;;;;;;10.93;9.70;;;;;;;;;;5041080;28;20116;-60
2023/04/22 13:40:46;;;;;;;12.57;10.05;;;;;;;;;;5035395;28;20083;-60
2023/04/22 13:43:12;;;;;;;14.30;11.68;;;;;;;;;;5047497;28;20041;-60
2023/04/22 13:45:39;;;;;;;14.35;12.68;;;;;;;;;;5043532;28;20743;-59
2023/04/22 13:48:05;;;;;;;17.27;14.88;;;;;;;;;;5046730;28;20049;-60
2023/04/22 13:50:31;;;;;;;18.77;15.82;;;;;;;;;;5029514;28;20041;-60
2023/04/22 13:52:57;;;;;;;24.92;15.85;;;;;;;;;;5049821;28;20036;-60
2023/04/22 13:55:25;;;;;;;19.60;15.90;;;;;;;;;;5043592;28;20037;-60
2023/04/22 13:57:51;;;;;;;18.95;16.92;;;;;;;;;;5044640;28;20045;-59
2023/04/22 14:00:17;;;;;;;21.90;18.67;;;;;;;;;;5020320;28;20049;-60
2023/04/22 14:02:44;;;;;;;21.55;17.38;;;;;;;;;;5046593;28;20057;-60
2023/04/22 14:05:10;;;;;;;23.08;17.60;;;;;;;;;;5055186;28;20063;-60
2023/04/22 14:07:36;;;;;;;21.55;19.13;;;;;;;;;;5048153;28;20114;-60
2023/04/22 14:10:03;;;;;;;22.63;18.48;;;;;;;;;;5046186;28;20040;-59
2023/04/22 14:12:29;;;;;;;21.88;18.95;;;;;;;;;;5046300;28;20048;-60
2023/04/22 14:14:55;;;;;;;22.77;20.02;;;;;;;;;;5047373;28;20119;-60